Time;durP1;ratioP1;P1;durP2;ratioP2;P2;SDS_P1;SDS_P2;PMS_P1;PMS_P2;Temp;Humidity;BMP_temperature;BMP_pressure;BME280_temperature;BME280_humidity;BME280_pressure;Samples;Min_cycle;Max_cycle;Signal;HPM_P1;HPM_P2
2022/08/03 00:00:44;;;;;;;2.00;1.20;;;;;;;21.27;46.11;100521.59;5078588;28;20406;-66
2022/08/03 00:03:12;;;;;;;2.90;1.38;;;;;;;21.21;46.29;100519.78;5080931;28;20115;-66
2022/08/03 00:05:38;;;;;;;2.20;1.38;;;;;;;21.18;46.68;100517.53;5079518;28;20516;-66
2022/08/03 00:08:04;;;;;;;2.03;1.30;;;;;;;21.12;46.83;100523.81;5067815;28;20044;-66
2022/08/03 00:10:30;;;;;;;2.40;1.30;;;;;;;21.03;47.16;100523.28;5078418;28;20044;-66
2022/08/03 00:12:55;;;;;;;1.70;1.20;;;;;;;20.92;47.62;100515.91;5078893;28;20043;-66
2022/08/03 00:15:22;;;;;;;1.70;1.30;;;;;;;20.82;47.69;100515.59;5080220;28;20400;-66
2022/08/03 00:17:48;;;;;;;1.80;1.30;;;;;;;20.73;47.83;100523.09;5083260;28;20038;-66
2022/08/03 00:20:16;;;;;;;1.55;1.20;;;;;;;20.64;47.81;100519.03;5089125;28;20036;-66
2022/08/03 00:22:41;;;;;;;1.75;1.15;;;;;;;20.56;48.30;100512.06;5091097;28;20083;-66
2022/08/03 00:25:08;;;;;;;1.88;1.10;;;;;;;20.48;48.42;100513.13;5086826;28;20067;-66
2022/08/03 00:27:34;;;;;;;2.08;1.40;;;;;;;20.41;49.00;100516.91;5066556;28;20370;-66
2022/08/03 00:30:01;;;;;;;1.60;1.10;;;;;;;20.33;48.84;100515.28;5077503;28;20036;-66
2022/08/03 00:32:27;;;;;;;1.85;1.33;;;;;;;20.28;49.39;100513.25;5076916;28;20248;-66
2022/08/03 00:34:54;;;;;;;1.77;1.40;;;;;;;20.29;49.26;100511.41;5086382;28;20058;-66
2022/08/03 00:37:20;;;;;;;1.70;1.25;;;;;;;20.32;49.20;100503.72;5105834;28;20024;-66
2022/08/03 00:39:47;;;;;;;1.58;1.17;;;;;;;20.32;49.68;100498.34;5074006;28;20063;-66
2022/08/03 00:42:14;;;;;;;3.22;1.40;;;;;;;20.35;49.28;100506.00;5059704;28;20036;-66
2022/08/03 00:44:42;;;;;;;1.85;1.20;;;;;;;20.40;49.07;100502.63;5084910;28;20165;-66
2022/08/03 00:47:09;;;;;;;2.50;1.50;;;;;;;20.50;48.80;100503.00;5080115;28;20106;-66
2022/08/03 00:49:36;;;;;;;1.30;1.10;;;;;;;20.54;48.45;100506.06;5079249;28;20048;-66
2022/08/03 00:52:03;;;;;;;2.28;1.25;;;;;;;20.52;48.64;100506.31;5061668;28;20053;-67
2022/08/03 00:54:29;;;;;;;1.98;1.33;;;;;;;20.47;49.08;100506.09;5081894;28;20063;-66
2022/08/03 00:56:55;;;;;;;2.22;1.20;;;;;;;20.41;49.54;100504.31;5082257;28;20046;-66
2022/08/03 00:59:21;;;;;;;2.28;1.42;;;;;;;20.43;48.94;100496.84;5061520;28;20075;-66
2022/08/03 01:01:47;;;;;;;1.38;1.10;;;;;;;20.48;48.73;100497.03;5066742;28;20381;-66
2022/08/03 01:04:14;;;;;;;2.35;1.25;;;;;;;20.52;48.46;100505.44;5057465;28;20050;-66
2022/08/03 01:06:57;;;;;;;1.80;1.20;;;;;;;20.54;48.54;100500.69;5082805;28;20036;-66
2022/08/03 01:09:45;;;;;;;1.70;1.20;;;;;;;20.55;48.49;100502.34;5075717;28;20098;-66
2022/08/03 01:12:30;;;;;;;6.20;3.70;;;;;;;20.55;48.56;100505.03;5039728;28;20111;-66
2022/08/03 01:15:28;;;;;;;20.15;8.45;;;;;;;20.56;48.87;100496.78;5066277;28;20039;-67
2022/08/03 01:18:19;;;;;;;28.30;11.52;;;;;;;20.58;48.82;100496.56;5021467;28;20040;-66
2022/08/03 01:20:52;;;;;;;41.00;14.33;;;;;;;20.55;48.49;100495.13;5060940;28;20039;-66
2022/08/03 01:23:32;;;;;;;30.65;11.57;;;;;;;20.55;48.69;100488.91;5057904;28;20387;-66
2022/08/03 01:26:01;;;;;;;13.33;5.33;;;;;;;20.54;48.54;100498.00;5059782;28;20028;-66
2022/08/03 01:28:48;;;;;;;6.78;3.13;;;;;;;20.52;48.66;100495.56;5077244;28;20299;-67
2022/08/03 01:31:21;;;;;;;4.63;2.20;;;;;;;20.51;48.32;100498.44;5077793;28;20040;-66
2022/08/03 01:33:56;;;;;;;2.78;1.73;;;;;;;20.50;48.48;100483.38;5060472;28;20142;-66
2022/08/03 01:36:28;;;;;;;3.13;1.48;;;;;;;20.50;48.46;100484.19;5062047;28;20131;-66
2022/08/03 01:38:59;;;;;;;3.65;2.05;;;;;;;20.51;48.62;100487.69;5076564;28;20024;-66
2022/08/03 01:41:34;;;;;;;11.77;5.07;;;;;;;20.51;48.49;100488.53;5061727;28;20035;-66
2022/08/03 01:44:03;;;;;;;13.65;5.50;;;;;;;20.51;48.63;100483.16;5078649;28;20055;-66
2022/08/03 01:46:32;;;;;;;11.27;4.88;;;;;;;20.47;48.71;100483.78;5082137;28;20033;-67
2022/08/03 01:49:00;;;;;;;9.38;3.92;;;;;;;20.43;48.42;100483.44;5045409;28;20059;-66
2022/08/03 01:51:27;;;;;;;12.77;5.18;;;;;;;20.33;49.03;100483.91;5075708;28;20042;-66
2022/08/03 01:53:54;;;;;;;13.57;5.72;;;;;;;20.27;48.83;100481.25;5082274;28;20029;-66
2022/08/03 01:56:25;;;;;;;14.25;5.55;;;;;;;20.19;50.16;100481.50;5076324;28;20512;-67
2022/08/03 01:58:56;;;;;;;10.23;4.25;;;;;;;20.11;49.80;100478.03;5050388;28;20036;-66
2022/08/03 02:01:24;;;;;;;8.75;3.20;;;;;;;20.02;50.66;100476.66;5065781;28;20048;-67
2022/08/03 02:03:52;;;;;;;4.70;2.40;;;;;;;19.97;50.88;100470.28;5071579;28;20051;-67
2022/08/03 02:06:20;;;;;;;4.72;2.53;;;;;;;19.92;51.05;100473.59;5069279;28;20036;-66
2022/08/03 02:08:50;;;;;;;13.10;6.43;;;;;;;19.92;50.56;100476.28;5068159;28;20335;-66
2022/08/03 02:11:16;;;;;;;13.68;6.05;;;;;;;19.88;51.21;100473.22;5071292;28;20028;-66
2022/08/03 02:13:47;;;;;;;16.92;7.00;;;;;;;19.84;51.18;100471.19;5066835;28;20395;-67
2022/08/03 02:16:13;;;;;;;16.08;6.47;;;;;;;19.82;51.36;100479.44;5076134;28;20497;-66
2022/08/03 02:18:42;;;;;;;16.38;6.65;;;;;;;19.80;50.99;100475.31;5078821;28;20120;-67
2022/08/03 02:21:10;;;;;;;13.82;5.68;;;;;;;19.81;51.17;100480.50;5081833;28;20055;-66
2022/08/03 02:23:37;;;;;;;7.15;3.25;;;;;;;19.82;50.97;100476.75;5084244;28;20036;-67
2022/08/03 02:26:07;;;;;;;5.15;2.40;;;;;;;19.81;51.26;100471.63;5078725;28;20121;-67
2022/08/03 02:28:40;;;;;;;2.50;1.70;;;;;;;19.87;50.72;100476.13;5078876;28;20171;-66
2022/08/03 02:31:12;;;;;;;2.28;1.58;;;;;;;19.94;50.67;100471.53;5074139;28;20063;-67
2022/08/03 02:33:43;;;;;;;2.67;1.55;;;;;;;20.01;50.36;100476.88;5081407;28;20036;-67
2022/08/03 02:36:12;;;;;;;2.45;1.35;;;;;;;20.03;49.94;100466.75;5058092;28;20045;-67
2022/08/03 02:38:41;;;;;;;2.47;1.40;;;;;;;20.03;50.24;100464.88;5053443;28;20032;-66
2022/08/03 02:41:15;;;;;;;2.00;1.33;;;;;;;20.04;50.15;100471.88;5084625;28;20406;-66
2022/08/03 02:43:45;;;;;;;2.00;1.30;;;;;;;20.03;49.99;100469.44;5080472;28;20041;-67
2022/08/03 02:46:16;;;;;;;1.65;1.13;;;;;;;19.98;50.22;100472.75;5071222;28;20043;-66
2022/08/03 02:48:45;;;;;;;2.17;1.20;;;;;;;19.95;50.23;100467.84;5060456;28;20040;-66
2022/08/03 02:51:11;;;;;;;1.77;1.10;;;;;;;19.90;50.44;100473.84;5098450;28;20031;-66
2022/08/03 02:53:39;;;;;;;1.30;1.00;;;;;;;19.82;50.43;100471.38;5095339;28;20043;-66
2022/08/03 02:56:08;;;;;;;1.90;1.00;;;;;;;19.77;50.46;100471.22;5072787;28;20033;-67
2022/08/03 02:58:34;;;;;;;1.55;1.08;;;;;;;19.69;50.62;100468.78;5080630;28;20532;-67
2022/08/03 03:01:02;;;;;;;1.27;1.00;;;;;;;19.63;50.42;100470.41;5066083;28;20036;-67
2022/08/03 03:03:29;;;;;;;1.27;0.90;;;;;;;19.61;50.64;100464.44;5079097;28;20261;-66
2022/08/03 03:05:56;;;;;;;1.70;1.10;;;;;;;19.61;50.60;100469.78;5082822;28;20028;-67
2022/08/03 03:08:25;;;;;;;1.88;1.10;;;;;;;19.60;50.42;100464.66;5078260;28;20077;-66
2022/08/03 03:10:54;;;;;;;2.33;1.00;;;;;;;19.57;50.80;100459.69;5057784;28;20177;-66
2022/08/03 03:13:21;;;;;;;2.20;1.17;;;;;;;19.52;51.03;100457.66;5068624;28;20039;-66
2022/08/03 03:15:48;;;;;;;2.35;1.00;;;;;;;19.50;50.83;100454.38;5085762;28;20028;-66
2022/08/03 03:18:16;;;;;;;1.90;0.90;;;;;;;19.42;51.00;100458.09;5085007;28;20036;-67
2022/08/03 03:20:44;;;;;;;1.30;0.90;;;;;;;19.34;51.10;100462.91;5065891;28;20634;-66
2022/08/03 03:23:12;;;;;;;1.83;1.15;;;;;;;19.27;51.34;100468.28;5061554;28;20124;-66
2022/08/03 03:25:39;;;;;;;1.35;1.00;;;;;;;19.21;51.45;100464.59;5087518;28;20534;-66
2022/08/03 03:28:05;;;;;;;1.90;1.10;;;;;;;19.16;51.88;100466.22;5050082;28;20173;-66
2022/08/03 03:30:30;;;;;;;1.58;1.02;;;;;;;19.07;52.29;100460.28;5089263;28;20059;-66
2022/08/03 03:32:57;;;;;;;2.55;1.05;;;;;;;19.00;52.81;100464.84;5058695;28;20516;-66
2022/08/03 03:35:24;;;;;;;1.90;1.08;;;;;;;18.92;52.66;100465.84;5070374;28;20115;-66
2022/08/03 03:37:51;;;;;;;1.40;1.10;;;;;;;18.85;53.02;100462.34;5082522;28;20086;-67
2022/08/03 03:40:18;;;;;;;1.70;1.27;;;;;;;18.78;53.67;100459.72;5070977;28;20060;-66
2022/08/03 03:42:45;;;;;;;1.63;1.20;;;;;;;18.72;54.18;100467.72;5068991;28;20097;-67
2022/08/03 03:45:12;;;;;;;1.67;1.20;;;;;;;18.67;54.46;100465.66;5085400;28;20032;-66
2022/08/03 03:47:39;;;;;;;2.50;1.30;;;;;;;18.62;54.62;100460.91;5070814;28;20122;-66
2022/08/03 03:50:06;;;;;;;1.63;1.30;;;;;;;18.67;54.67;100477.19;5050022;28;20135;-66
2022/08/03 03:52:33;;;;;;;1.60;1.20;;;;;;;18.75;54.17;100461.94;5085611;28;20089;-66
2022/08/03 03:54:59;;;;;;;2.13;1.30;;;;;;;18.84;53.78;100461.53;5080670;28;20047;-66
2022/08/03 03:57:25;;;;;;;2.05;1.40;;;;;;;19.00;53.12;100459.47;5084830;28;20073;-64
2022/08/03 03:59:51;;;;;;;2.13;1.40;;;;;;;19.15;53.21;100467.28;5080118;28;20515;-65
2022/08/03 04:02:17;;;;;;;1.75;1.25;;;;;;;19.26;52.54;100470.13;5062605;28;20055;-65
2022/08/03 04:13:11;;;;;;;2.38;1.42;;;;;;;19.43;52.69;100469.69;5056837;28;20552;-65
2022/08/03 04:15:39;;;;;;;2.00;1.40;;;;;;;19.46;52.12;100475.44;5087679;28;20051;-65
2022/08/03 04:18:07;;;;;;;1.67;1.40;;;;;;;19.41;52.99;100477.09;5058033;28;20074;-65
2022/08/03 04:20:35;;;;;;;1.58;1.30;;;;;;;19.36;53.35;100476.91;5083662;28;20032;-65
2022/08/03 04:23:02;;;;;;;2.13;1.30;;;;;;;19.34;53.19;100477.13;5083711;28;20036;-65
2022/08/03 04:25:35;;;;;;;2.17;1.40;;;;;;;19.36;53.48;100474.25;5085266;28;20060;-65
2022/08/03 04:28:04;;;;;;;2.20;1.60;;;;;;;19.45;52.49;100475.63;5087190;28;20044;-65
2022/08/03 04:30:32;;;;;;;2.22;1.50;;;;;;;19.52;52.25;100482.63;5079869;28;20554;-65
2022/08/03 04:33:00;;;;;;;1.77;1.33;;;;;;;19.56;52.39;100474.16;5062713;28;20044;-65
2022/08/03 04:35:33;;;;;;;1.98;1.52;;;;;;;19.60;52.15;100470.03;5061083;28;20058;-65
2022/08/03 04:38:05;;;;;;;2.58;1.30;;;;;;;19.65;52.06;100484.44;5070332;28;20035;-65
2022/08/03 04:40:38;;;;;;;1.70;1.30;;;;;;;19.70;51.85;100491.88;5068048;28;20044;-64
2022/08/03 04:43:06;;;;;;;1.75;1.15;;;;;;;19.69;52.34;100492.94;5064329;28;20048;-65
2022/08/03 04:45:34;;;;;;;2.40;1.40;;;;;;;19.69;52.26;100491.06;5065247;28;20100;-65
2022/08/03 04:48:01;;;;;;;2.58;1.50;;;;;;;19.69;52.74;100484.88;5085927;28;20037;-65
2022/08/03 04:50:27;;;;;;;2.20;1.65;;;;;;;19.69;53.22;100484.88;5060187;28;20051;-65
2022/08/03 04:52:54;;;;;;;2.33;1.60;;;;;;;19.73;52.67;100489.63;5058946;28;20092;-65
2022/08/03 04:55:28;;;;;;;1.80;1.20;;;;;;;19.79;52.52;100492.47;5081205;28;20028;-64
2022/08/03 04:57:58;;;;;;;1.80;1.23;;;;;;;19.78;52.94;100494.31;5064835;28;20158;-65
2022/08/03 05:00:24;;;;;;;2.28;1.30;;;;;;;19.82;52.58;100495.53;5084614;28;20032;-65
2022/08/03 05:02:55;;;;;;;1.70;1.42;;;;;;;19.92;52.59;100487.03;5083901;28;20024;-65
2022/08/03 05:05:23;;;;;;;1.52;1.30;;;;;;;19.97;52.43;100487.19;5065541;28;20032;-65
2022/08/03 05:07:49;;;;;;;1.92;1.45;;;;;;;19.98;52.61;100488.88;5055387;28;20355;-65
2022/08/03 05:10:16;;;;;;;1.83;1.40;;;;;;;20.04;52.64;100481.81;5078106;28;20439;-66
2022/08/03 05:12:44;;;;;;;2.70;1.38;;;;;;;20.12;52.52;100486.94;5064491;28;20028;-65
2022/08/03 05:15:11;;;;;;;3.78;1.65;;;;;;;20.15;52.73;100486.50;5074141;28;20040;-65
2022/08/03 05:17:37;;;;;;;2.00;1.45;;;;;;;20.22;52.83;100491.84;5050351;28;20028;-65
2022/08/03 05:20:04;;;;;;;2.45;1.50;;;;;;;20.28;52.73;100482.91;5076521;28;20031;-66
2022/08/03 05:22:31;;;;;;;2.42;1.50;;;;;;;20.36;52.67;100485.34;5060289;28;20044;-65
2022/08/03 05:24:57;;;;;;;2.28;1.40;;;;;;;20.49;52.32;100487.09;5076559;28;20095;-65
2022/08/03 05:27:23;;;;;;;2.10;1.58;;;;;;;20.66;51.63;100495.47;5085980;28;20174;-65
2022/08/03 05:29:50;;;;;;;1.77;1.23;;;;;;;20.89;51.29;100503.75;5064594;28;20047;-65
2022/08/03 05:32:16;;;;;;;3.22;1.40;;;;;;;21.20;50.47;100488.56;5086598;28;20056;-65
2022/08/03 05:34:43;;;;;;;1.88;1.38;;;;;;;21.60;49.69;100491.66;5081111;28;20116;-65
2022/08/03 05:37:10;;;;;;;2.33;1.60;;;;;;;22.00;48.62;100493.00;5069417;28;20037;-65
2022/08/03 05:39:36;;;;;;;1.60;1.20;;;;;;;22.39;47.99;100493.53;5057960;28;20123;-66
2022/08/03 05:42:03;;;;;;;2.15;1.23;;;;;;;22.80;47.35;100494.53;5082588;28;20028;-66
2022/08/03 05:44:29;;;;;;;1.60;1.17;;;;;;;23.16;46.11;100498.91;5068312;28;20036;-66
2022/08/03 05:46:55;;;;;;;1.63;1.23;;;;;;;23.63;46.10;100501.53;5056209;28;20043;-66
2022/08/03 05:49:22;;;;;;;2.28;1.33;;;;;;;24.01;45.33;100504.72;5059187;28;20044;-66
2022/08/03 05:51:49;;;;;;;2.10;1.23;;;;;;;24.38;44.28;100497.84;5066626;28;20388;-66
2022/08/03 05:54:17;;;;;;;1.98;0.98;;;;;;;24.96;43.61;100506.63;5064371;28;20403;-67
2022/08/03 05:56:42;;;;;;;1.30;1.00;;;;;;;25.28;43.68;100507.94;5081157;28;20055;-66
2022/08/03 05:59:08;;;;;;;1.55;1.20;;;;;;;25.61;42.31;100507.00;5078965;28;20036;-66
2022/08/03 06:01:34;;;;;;;;;;;;;;;25.69;40.03;100503.84;5088708;28;20031;-66
2022/08/03 06:03:59;;;;;;;;;;;;;;;25.76;40.31;100504.47;5076612;28;19916;-66
2022/08/03 06:06:26;;;;;;;1.80;1.23;;;;;;;26.08;40.60;100514.63;5089050;28;19981;-66
2022/08/03 06:08:57;;;;;;;1.77;1.00;;;;;;;26.48;40.62;100503.34;5070264;28;20122;-66
2022/08/03 06:11:23;;;;;;;;;;;;;;;26.94;39.84;100505.63;5084495;28;20056;-66
2022/08/03 06:13:49;;;;;;;;;;;;;;;27.19;38.87;100504.97;5054003;28;20191;-66
2022/08/03 06:16:15;;;;;;;;;;;;;;;27.37;37.89;100511.06;5053593;28;19916;-67
2022/08/03 06:18:42;;;;;;;2.17;1.38;;;;;;;27.53;37.54;100505.44;5066192;28;19948;-66
2022/08/03 06:21:09;;;;;;;2.25;0.98;;;;;;;27.84;37.72;100510.16;5083750;28;20032;-67
2022/08/03 06:23:35;;;;;;;1.88;1.02;;;;;;;28.27;37.59;100503.50;5068215;28;20036;-66
2022/08/03 06:26:04;;;;;;;1.60;1.15;;;;;;;28.61;36.37;100496.72;5088094;28;20068;-66
2022/08/03 06:28:33;;;;;;;1.95;1.17;;;;;;;28.94;36.48;100504.31;5054703;28;20033;-66
2022/08/03 06:31:00;;;;;;;1.80;1.23;;;;;;;29.19;36.32;100503.44;5055193;28;20036;-66
2022/08/03 06:33:26;;;;;;;2.83;1.13;;;;;;;29.39;36.39;100505.31;5063344;28;20056;-66
2022/08/03 06:35:54;;;;;;;2.05;1.25;;;;;;;29.50;34.97;100502.53;5084068;28;20109;-66
2022/08/03 06:38:21;;;;;;;3.47;1.23;;;;;;;29.55;35.01;100503.31;5061414;28;20059;-66
2022/08/03 06:40:46;;;;;;;1.55;1.00;;;;;;;29.75;34.84;100504.38;5094544;28;20093;-67
2022/08/03 06:43:14;;;;;;;1.90;0.90;;;;;;;30.06;34.88;100510.47;5085770;28;20127;-67
2022/08/03 06:45:41;;;;;;;2.30;1.17;;;;;;;30.16;34.12;100509.59;5073545;28;20157;-67
2022/08/03 06:48:11;;;;;;;2.15;1.20;;;;;;;30.30;33.84;100510.59;5060702;28;20108;-67
2022/08/03 06:50:40;;;;;;;2.15;1.20;;;;;;;30.42;33.55;100521.16;5085585;28;20028;-67
2022/08/03 06:53:08;;;;;;;1.30;0.90;;;;;;;30.73;33.70;100518.19;5069785;28;20101;-67
2022/08/03 06:55:34;;;;;;;1.25;0.88;;;;;;;31.07;33.36;100516.22;5089273;28;20036;-68
2022/08/03 06:58:00;;;;;;;1.02;0.90;;;;;;;31.32;32.82;100517.03;5079450;28;20036;-68
2022/08/03 07:00:27;;;;;;;1.58;0.90;;;;;;;31.39;32.27;100516.69;5078980;28;20032;-65
2022/08/03 07:02:53;;;;;;;2.85;1.50;;;;;;;31.28;30.94;100522.28;5063665;28;20109;-68
2022/08/03 07:05:20;;;;;;;1.70;1.00;;;;;;;31.33;31.73;100524.13;5067219;28;20039;-68
2022/08/03 07:07:48;;;;;;;1.38;0.93;;;;;;;31.66;31.72;100514.19;5078742;28;20119;-68
2022/08/03 07:10:14;;;;;;;1.98;1.00;;;;;;;31.99;30.95;100516.22;5058845;28;20024;-66
2022/08/03 07:12:40;;;;;;;1.77;0.95;;;;;;;32.14;30.74;100518.75;5077929;28;20540;-68
2022/08/03 07:15:07;;;;;;;2.85;1.10;;;;;;;32.32;29.90;100520.66;5065332;28;20047;-68
2022/08/03 07:17:35;;;;;;;2.00;1.35;;;;;;;32.69;29.29;100521.72;5088306;28;20032;-67
2022/08/03 07:20:05;;;;;;;3.47;1.20;;;;;;;32.73;29.75;100522.75;5059640;28;20510;-67
2022/08/03 07:22:31;;;;;;;1.60;1.00;;;;;;;32.95;29.67;100519.34;5055535;28;20036;-68
2022/08/03 07:24:57;;;;;;;2.63;1.00;;;;;;;33.11;29.38;100530.03;5065095;28;20809;-68
2022/08/03 07:27:25;;;;;;;1.73;0.98;;;;;;;33.31;29.67;100515.94;5083204;28;20033;-68
2022/08/03 07:29:51;;;;;;;2.17;1.10;;;;;;;33.51;28.98;100525.66;5088616;28;20104;-68
2022/08/03 07:32:17;;;;;;;1.30;1.00;;;;;;;33.40;28.97;100522.34;5081974;28;20036;-67
2022/08/03 07:34:43;;;;;;;1.60;1.10;;;;;;;33.69;29.23;100520.41;5090366;28;20040;-67
2022/08/03 07:37:10;;;;;;;2.00;1.00;;;;;;;33.93;28.91;100533.88;5063854;28;20056;-68
2022/08/03 07:39:38;;;;;;;2.33;1.00;;;;;;;34.25;28.43;100524.63;5046940;28;20033;-68
2022/08/03 07:42:04;;;;;;;1.77;1.02;;;;;;;34.63;27.88;100525.09;5084659;28;20127;-68
2022/08/03 07:44:30;;;;;;;1.38;1.00;;;;;;;34.79;27.18;100516.47;5090065;28;20489;-67
2022/08/03 07:46:56;;;;;;;1.38;0.85;;;;;;;34.80;26.80;100523.56;5065989;28;20523;-67
2022/08/03 07:49:22;;;;;;;2.47;1.00;;;;;;;35.02;26.60;100522.75;5078228;28;20051;-68
2022/08/03 07:52:46;;;;;;;1.75;1.00;;;;;;;34.94;26.39;100520.75;5079144;28;20301;-67
2022/08/03 07:54:34;;;;;;;2.05;1.00;;;;;;;35.27;26.05;100519.28;5073192;28;20491;-68
2022/08/03 07:57:00;;;;;;;1.88;1.00;;;;;;;35.30;25.67;100520.59;5046376;28;20043;-66
2022/08/03 07:59:28;;;;;;;2.53;1.30;;;;;;;35.18;25.85;100521.19;5085017;28;20036;-65
2022/08/03 08:01:55;;;;;;;3.22;1.20;;;;;;;35.42;25.83;100529.06;5066873;28;20116;-67
2022/08/03 08:04:21;;;;;;;1.90;1.08;;;;;;;35.74;25.63;100518.78;5063852;28;20420;-68
2022/08/03 08:06:47;;;;;;;1.90;1.10;;;;;;;36.00;25.28;100515.25;5063384;28;20446;-68
2022/08/03 08:09:15;;;;;;;2.50;1.33;;;;;;;36.36;24.39;100524.00;5080301;28;20040;-68
2022/08/03 08:11:41;;;;;;;1.77;1.20;;;;;;;36.86;23.83;100521.81;5074314;28;20499;-66
2022/08/03 08:14:08;;;;;;;2.65;1.30;;;;;;;37.32;23.68;100515.47;5065700;28;20048;-66
2022/08/03 08:16:35;;;;;;;1.63;1.10;;;;;;;37.79;23.47;100511.81;5086534;28;20033;-66
2022/08/03 08:19:01;;;;;;;1.40;0.90;;;;;;;37.84;23.02;100508.84;5058862;28;20031;-66
2022/08/03 08:21:28;;;;;;;1.83;1.10;;;;;;;37.96;22.85;100505.34;5088531;28;20043;-66
2022/08/03 08:23:54;;;;;;;2.22;1.20;;;;;;;38.27;21.77;100504.13;5064733;28;20053;-66
2022/08/03 08:26:20;;;;;;;2.95;1.45;;;;;;;38.06;22.20;100502.19;5080252;28;20040;-66
2022/08/03 08:28:46;;;;;;;2.25;1.10;;;;;;;38.33;21.67;100509.09;5061027;28;20048;-65
2022/08/03 08:31:12;;;;;;;3.50;1.40;;;;;;;38.88;21.41;100501.53;5079452;28;20386;-68
2022/08/03 08:33:38;;;;;;;2.08;1.33;;;;;;;39.05;21.23;100495.81;5085917;28;20085;-68
2022/08/03 08:36:04;;;;;;;2.05;1.25;;;;;;;38.93;21.40;100501.34;5082789;28;20046;-66
2022/08/03 08:38:31;;;;;;;2.53;1.40;;;;;;;39.13;20.99;100505.13;5079676;28;20040;-66
2022/08/03 08:40:57;;;;;;;1.33;1.00;;;;;;;39.58;21.08;100495.91;5090279;28;20036;-66
2022/08/03 08:43:26;;;;;;;3.58;1.10;;;;;;;39.94;20.78;100493.41;5083424;28;20031;-67
2022/08/03 08:45:55;;;;;;;2.60;1.20;;;;;;;39.96;20.13;100499.41;5086077;28;20032;-66
2022/08/03 08:48:25;;;;;;;2.40;1.20;;;;;;;40.09;20.63;100499.00;5049668;28;20540;-67
2022/08/03 08:50:54;;;;;;;2.28;0.90;;;;;;;40.47;19.87;100491.31;5062061;28;20044;-67
2022/08/03 08:53:21;;;;;;;1.15;0.90;;;;;;;40.66;19.68;100487.84;5069242;28;20496;-67
2022/08/03 08:55:49;;;;;;;2.30;1.10;;;;;;;40.73;19.12;100490.84;5064481;28;20035;-67
2022/08/03 08:58:15;;;;;;;1.60;1.00;;;;;;;41.07;19.35;100485.72;5081092;28;20119;-67
2022/08/03 09:00:44;;;;;;;1.60;0.90;;;;;;;41.82;18.93;100481.91;5084214;28;20127;-67
2022/08/03 09:03:15;;;;;;;2.10;1.20;;;;;;;42.15;18.43;100486.16;5056553;28;20043;-67
2022/08/03 09:05:44;;;;;;;1.85;0.82;;;;;;;42.00;18.18;100476.72;5080324;28;20038;-67
2022/08/03 09:08:10;;;;;;;1.83;1.05;;;;;;;41.95;17.40;100480.63;5079568;28;20043;-67
2022/08/03 09:10:36;;;;;;;1.95;1.10;;;;;;;42.39;17.58;100488.63;5080565;28;20059;-67
2022/08/03 09:13:04;;;;;;;2.25;1.10;;;;;;;43.08;17.39;100485.03;5086398;28;20467;-67
2022/08/03 09:15:32;;;;;;;2.47;1.02;;;;;;;43.59;16.90;100487.34;5046153;28;20048;-67
2022/08/03 09:18:00;;;;;;;1.27;0.90;;;;;;;44.01;16.71;100485.53;5068328;28;20028;-67
2022/08/03 09:20:31;;;;;;;2.15;0.93;;;;;;;44.40;15.75;100482.34;5075757;28;20401;-67
2022/08/03 09:22:57;;;;;;;2.13;1.20;;;;;;;44.24;15.42;100479.78;5075437;28;20061;-67
2022/08/03 09:25:32;;;;;;;1.38;0.90;;;;;;;44.67;15.73;100485.78;5085393;28;20039;-67
2022/08/03 09:28:12;;;;;;;2.47;1.05;;;;;;;44.87;15.13;100481.59;5077496;28;20539;-67
2022/08/03 09:30:43;;;;;;;1.25;0.98;;;;;;;45.23;15.17;100486.66;5082995;28;20665;-67
2022/08/03 09:33:12;;;;;;;2.03;1.05;;;;;;;45.93;14.95;100484.59;5059450;28;20044;-67
2022/08/03 09:35:45;;;;;;;1.17;0.88;;;;;;;46.28;14.38;100481.13;5067446;28;20055;-68
2022/08/03 09:38:22;;;;;;;1.70;0.90;;;;;;;46.78;14.40;100483.97;5080840;28;20291;-67
2022/08/03 09:40:49;;;;;;;2.95;1.10;;;;;;;47.10;13.77;100479.56;5070063;28;20059;-67
2022/08/03 09:43:16;;;;;;;3.13;1.08;;;;;;;47.13;13.13;100475.94;5080441;28;20090;-68
2022/08/03 09:45:45;;;;;;;1.85;1.10;;;;;;;46.91;13.68;100470.34;5083189;28;20044;-67
2022/08/03 09:48:23;;;;;;;1.30;0.90;;;;;;;46.81;13.28;100468.38;5076940;28;20059;-67
2022/08/03 09:50:57;;;;;;;1.85;0.90;;;;;;;46.57;13.90;100461.56;5068090;28;20032;-67
2022/08/03 09:53:24;;;;;;;1.20;0.80;;;;;;;46.86;13.31;100464.38;5057549;28;20070;-67
2022/08/03 09:55:53;;;;;;;1.88;1.00;;;;;;;47.09;13.55;100475.94;5061418;28;20032;-67
2022/08/03 09:58:24;;;;;;;1.50;1.10;;;;;;;47.37;13.17;100468.69;5082676;28;20047;-67
2022/08/03 10:00:55;;;;;;;1.50;0.90;;;;;;;47.73;13.07;100463.75;5045047;28;20047;-67
2022/08/03 10:03:23;;;;;;;1.58;0.90;;;;;;;47.80;12.51;100463.72;5059212;28;20036;-68
2022/08/03 10:05:49;;;;;;;1.20;0.90;;;;;;;47.85;12.61;100463.31;5067120;28;20409;-67
2022/08/03 10:08:19;;;;;;;1.60;1.00;;;;;;;48.12;12.56;100471.16;5050074;28;20093;-67
2022/08/03 10:10:47;;;;;;;1.10;0.80;;;;;;;48.72;12.58;100463.50;5056777;28;20028;-68
2022/08/03 10:13:15;;;;;;;1.55;1.10;;;;;;;48.90;12.19;100460.53;5064475;28;20039;-67
2022/08/03 10:15:41;;;;;;;1.15;0.90;;;;;;;49.41;12.15;100461.63;5075063;28;20128;-67
2022/08/03 10:18:08;;;;;;;0.88;0.68;;;;;;;49.99;11.85;100461.66;5077792;28;20035;-68
2022/08/03 10:20:39;;;;;;;1.77;1.00;;;;;;;50.05;11.57;100457.16;5080886;28;20115;-67
2022/08/03 10:23:07;;;;;;;2.35;1.05;;;;;;;49.73;11.43;100455.59;5042929;28;20040;-68
2022/08/03 10:25:36;;;;;;;1.88;0.90;;;;;;;49.66;11.38;100454.91;5084330;28;20028;-68
2022/08/03 10:28:05;;;;;;;1.88;1.10;;;;;;;49.36;11.68;100458.47;5072846;28;20032;-70
2022/08/03 10:30:33;;;;;;;1.55;1.00;;;;;;;48.90;11.71;100443.69;5080799;28;20499;-68
2022/08/03 10:33:24;;;;;;;2.08;1.10;;;;;;;48.93;11.84;100444.88;5057423;28;20051;-68
2022/08/03 10:35:53;;;;;;;2.15;1.00;;;;;;;49.34;11.93;100444.06;5079884;28;20496;-68
2022/08/03 10:38:28;;;;;;;2.10;1.00;;;;;;;49.64;11.99;100443.28;5083184;28;20330;-68
2022/08/03 10:40:55;;;;;;;3.08;1.00;;;;;;;50.05;11.78;100436.69;5063607;28;20292;-68
2022/08/03 10:43:41;;;;;;;1.80;1.02;;;;;;;50.05;11.63;100434.69;5092336;28;20648;-68
2022/08/03 10:46:07;;;;;;;2.58;1.20;;;;;;;50.35;10.83;100433.81;5092645;28;20028;-69
2022/08/03 10:48:35;;;;;;;2.45;1.17;;;;;;;50.09;11.26;100418.53;5071966;28;20059;-67
2022/08/03 10:51:02;;;;;;;2.20;0.90;;;;;;;50.51;11.52;100412.63;5067535;28;20064;-68
2022/08/03 10:53:41;;;;;;;1.95;1.08;;;;;;;50.33;11.35;100422.16;5084799;28;20190;-68
2022/08/03 10:59:19;;;;;;;1.38;1.00;;;;;;;50.27;11.77;100411.81;5091721;28;20046;-68
2022/08/03 11:01:55;;;;;;;2.05;1.10;;;;;;;50.31;11.67;100416.16;5091770;28;20047;-68
2022/08/03 11:04:25;;;;;;;1.95;1.10;;;;;;;50.50;11.07;100411.06;5074274;28;20036;-68
2022/08/03 11:07:09;;;;;;;;;;;;;;;50.17;11.10;100410.00;5068589;28;20037;-68
2022/08/03 11:09:43;;;;;;;3.08;1.00;;;;;;;50.57;11.21;100411.72;5077460;28;19924;-68
2022/08/03 11:12:30;;;;;;;1.58;0.90;;;;;;;51.18;11.06;100413.41;5078411;28;20070;-68
2022/08/03 11:15:05;;;;;;;1.33;1.02;;;;;;;51.55;11.00;100413.44;5066895;28;20032;-68
2022/08/03 11:17:33;;;;;;;1.60;1.10;;;;;;;51.50;10.74;100414.75;5080272;28;20097;-67
2022/08/03 11:19:59;;;;;;;1.20;1.00;;;;;;;50.68;10.88;100399.44;5070726;28;20029;-67
2022/08/03 11:22:45;;;;;;;1.45;1.10;;;;;;;50.49;11.25;100390.56;5082254;28;20371;-68
2022/08/03 11:25:13;;;;;;;2.08;0.90;;;;;;;51.29;11.44;100401.91;5081167;28;20048;-68
2022/08/03 11:27:39;;;;;;;1.70;1.00;;;;;;;51.68;10.25;100399.44;5083880;28;20378;-68
2022/08/03 11:30:08;;;;;;;1.73;1.00;;;;;;;51.68;9.94;100402.25;5079038;28;20036;-71
2022/08/03 11:32:47;;;;;;;1.77;1.00;;;;;;;51.25;10.73;100398.34;5071813;28;20097;-68
2022/08/03 11:35:19;;;;;;;2.85;1.05;;;;;;;51.51;10.40;100399.41;5078933;28;20039;-67
2022/08/03 11:38:06;;;;;;;1.77;0.90;;;;;;;51.85;10.55;100389.81;5084692;28;20457;-68
2022/08/03 11:40:50;;;;;;;1.70;0.90;;;;;;;51.87;10.66;100392.97;5055106;28;20051;-67
2022/08/03 11:43:22;;;;;;;1.08;0.75;;;;;;;52.55;10.28;100388.47;5087155;28;20496;-68
2022/08/03 11:46:16;;;;;;;1.50;0.90;;;;;;;52.91;9.00;100381.06;5089032;28;20442;-67